createdAt,value
2018-12-31T00:00:32.260Z,9.70
2018-12-31T00:01:32.261Z,11.30
2018-12-31T00:02:32.255Z,9.50
2018-12-31T00:03:32.252Z,6.00
2018-12-31T00:04:32.271Z,7.60
2018-12-31T00:05:32.243Z,9.20
2018-12-31T00:06:32.245Z,8.60
2018-12-31T00:07:32.235Z,9.70
2018-12-31T00:08:32.237Z,8.20
2018-12-31T00:09:32.251Z,8.40
2018-12-31T00:10:32.220Z,7.10
2018-12-31T00:11:32.223Z,10.10
2018-12-31T00:12:32.215Z,7.70
2018-12-31T00:13:32.235Z,7.00
2018-12-31T00:14:32.207Z,8.10
2018-12-31T00:15:32.209Z,8.70
2018-12-31T00:16:32.213Z,7.20
2018-12-31T00:17:32.197Z,7.10
2018-12-31T00:18:32.218Z,7.40
2018-12-31T00:19:32.187Z,8.10
2018-12-31T00:20:32.179Z,7.50
2018-12-31T00:21:32.178Z,8.30
2018-12-31T00:22:32.177Z,7.90
2018-12-31T00:23:32.195Z,9.60
2018-12-31T00:24:32.167Z,7.20
2018-12-31T00:25:32.162Z,10.40
2018-12-31T00:26:32.225Z,8.90
2018-12-31T00:27:32.156Z,9.10
2018-12-31T00:28:32.179Z,8.30
2018-12-31T00:29:32.146Z,9.30
2018-12-31T00:30:32.140Z,10.20
2018-12-31T00:31:32.139Z,7.50
2018-12-31T00:32:32.136Z,7.80
2018-12-31T00:33:32.159Z,9.30
2018-12-31T00:34:32.203Z,10.10
2018-12-31T00:35:32.120Z,7.00
2018-12-31T00:36:32.118Z,8.60
2018-12-31T00:37:32.113Z,9.90
2018-12-31T00:38:32.111Z,8.20
2018-12-31T00:39:32.134Z,7.70
2018-12-31T00:40:32.102Z,7.60
2018-12-31T00:41:32.098Z,8.00
2018-12-31T00:42:32.095Z,7.10
2018-12-31T00:43:32.092Z,6.70
2018-12-31T00:44:32.119Z,9.50
2018-12-31T00:45:32.114Z,7.60
2018-12-31T00:46:32.085Z,8.70
2018-12-31T00:47:32.074Z,8.70
2018-12-31T00:48:32.072Z,7.80
2018-12-31T00:49:32.066Z,9.10
2018-12-31T00:50:32.094Z,6.50
2018-12-31T00:51:32.061Z,8.20
2018-12-31T00:52:32.057Z,7.90
2018-12-31T00:53:32.051Z,10.20
2018-12-31T00:54:32.045Z,8.40
2018-12-31T00:55:32.069Z,6.50
2018-12-31T00:56:32.037Z,7.30
2018-12-31T00:57:32.030Z,8.30
2018-12-31T00:58:32.033Z,7.90
2018-12-31T00:59:32.025Z,8.20
2018-12-31T01:00:32.054Z,9.70
2018-12-31T01:01:32.017Z,5.50
2018-12-31T01:02:32.038Z,7.90
2018-12-31T01:03:32.013Z,7.20
2018-12-31T01:04:32.003Z,8.00
2018-12-31T01:05:32.001Z,9.40
2018-12-31T01:06:32.031Z,9.20
2018-12-31T01:07:31.995Z,12.50
2018-12-31T01:08:31.989Z,9.80
2018-12-31T01:09:31.985Z,7.40
2018-12-31T01:10:31.983Z,7.60
2018-12-31T01:11:32.008Z,9.10
2018-12-31T01:12:31.976Z,9.90
2018-12-31T01:13:31.974Z,7.70
2018-12-31T01:14:31.968Z,7.10
2018-12-31T01:15:31.962Z,8.70
2018-12-31T01:16:31.989Z,9.00
2018-12-31T01:17:31.956Z,7.60
2018-12-31T01:18:31.958Z,7.70
2018-12-31T01:19:31.942Z,11.00
2018-12-31T01:20:31.944Z,9.20
2018-12-31T01:21:31.979Z,8.20
2018-12-31T01:22:31.932Z,8.90
2018-12-31T01:23:31.929Z,9.00
2018-12-31T01:24:31.921Z,9.30
2018-12-31T01:25:31.923Z,8.00
2018-12-31T01:26:31.942Z,9.70
2018-12-31T01:27:31.914Z,9.20
2018-12-31T01:28:31.908Z,6.40
2018-12-31T01:29:31.906Z,7.20
2018-12-31T01:30:31.905Z,9.10
2018-12-31T01:31:31.925Z,8.00
2018-12-31T01:32:31.900Z,8.20
2018-12-31T01:33:31.892Z,10.20
2018-12-31T01:34:31.888Z,7.10
2018-12-31T01:35:31.880Z,9.50
2018-12-31T01:36:31.904Z,8.90
2018-12-31T01:37:31.873Z,8.80
2018-12-31T01:38:31.872Z,8.80
2018-12-31T01:39:31.867Z,7.60
2018-12-31T01:40:31.857Z,9.00
2018-12-31T01:41:31.884Z,8.30
2018-12-31T01:42:31.855Z,10.50
2018-12-31T01:43:31.847Z,11.70
2018-12-31T01:44:31.852Z,10.20
2018-12-31T01:45:31.843Z,7.30
2018-12-31T01:46:31.863Z,9.80
2018-12-31T01:47:31.832Z,8.40
2018-12-31T01:48:31.827Z,7.90
2018-12-31T01:49:31.823Z,6.90
2018-12-31T01:50:31.826Z,10.40
2018-12-31T01:51:31.845Z,8.70
2018-12-31T01:52:31.815Z,8.90
2018-12-31T01:53:31.811Z,9.90
2018-12-31T01:54:31.811Z,9.40
2018-12-31T01:55:31.807Z,7.20
2018-12-31T01:56:31.830Z,9.80
2018-12-31T01:57:31.795Z,9.50
2018-12-31T01:58:31.791Z,7.60
2018-12-31T01:59:31.791Z,10.50
2018-12-31T02:00:31.859Z,8.80
2018-12-31T02:01:31.806Z,8.60
2018-12-31T02:02:31.779Z,11.20
2018-12-31T02:03:31.774Z,8.80
2018-12-31T02:04:31.766Z,8.20
2018-12-31T02:05:31.765Z,10.80
2018-12-31T02:06:31.786Z,8.30
2018-12-31T02:07:31.756Z,8.70
2018-12-31T02:08:31.750Z,8.30
2018-12-31T02:09:31.746Z,8.50
2018-12-31T02:10:31.742Z,9.30
2018-12-31T02:11:31.766Z,9.00
2018-12-31T02:12:31.736Z,10.30
2018-12-31T02:13:31.730Z,10.50
2018-12-31T02:14:31.726Z,7.90
2018-12-31T02:15:31.722Z,9.20
2018-12-31T02:16:31.746Z,10.70
2018-12-31T02:17:31.720Z,10.80
2018-12-31T02:18:31.736Z,10.40
2018-12-31T02:19:31.706Z,10.40
2018-12-31T02:20:31.702Z,7.70
2018-12-31T02:21:31.698Z,8.50
2018-12-31T02:22:31.722Z,11.20
2018-12-31T02:23:31.690Z,8.80
2018-12-31T02:24:31.686Z,9.90
2018-12-31T02:25:31.681Z,10.20
2018-12-31T02:26:31.706Z,10.10
2018-12-31T02:27:31.678Z,9.20
2018-12-31T02:28:31.669Z,9.80
2018-12-31T02:29:31.668Z,7.60
2018-12-31T02:30:31.662Z,10.00
2018-12-31T02:31:31.682Z,8.40
2018-12-31T02:32:31.661Z,8.40
2018-12-31T02:33:31.658Z,9.80
2018-12-31T02:34:31.647Z,8.10
2018-12-31T02:35:31.641Z,9.20
2018-12-31T02:36:31.641Z,8.70
2018-12-31T02:37:31.664Z,9.50
2018-12-31T02:38:31.644Z,12.80
2018-12-31T02:39:31.628Z,10.70
2018-12-31T02:40:31.627Z,10.20
2018-12-31T02:41:31.642Z,9.60
2018-12-31T02:42:31.613Z,9.80
2018-12-31T02:43:31.637Z,9.30
2018-12-31T02:44:31.611Z,8.90
2018-12-31T02:45:31.602Z,10.70
2018-12-31T02:46:31.604Z,11.40
2018-12-31T02:47:31.625Z,9.90
2018-12-31T02:48:31.586Z,9.80
2018-12-31T02:49:31.600Z,11.00
2018-12-31T02:50:31.585Z,8.50
2018-12-31T02:51:31.581Z,10.50
2018-12-31T02:52:31.609Z,9.70
2018-12-31T02:53:31.573Z,8.90
2018-12-31T02:54:31.570Z,10.80
2018-12-31T02:55:31.565Z,10.70
2018-12-31T02:56:31.559Z,11.90
2018-12-31T02:57:31.603Z,10.00
2018-12-31T02:58:31.556Z,9.60
2018-12-31T02:59:31.553Z,10.20
2018-12-31T03:00:31.551Z,9.50
2018-12-31T03:01:31.539Z,10.20
2018-12-31T03:02:31.569Z,9.30
2018-12-31T03:03:31.534Z,9.40
2018-12-31T03:04:31.530Z,9.10
2018-12-31T03:05:31.525Z,9.20
2018-12-31T03:06:31.525Z,9.10
2018-12-31T03:07:31.551Z,9.90
2018-12-31T03:08:31.517Z,10.80
2018-12-31T03:09:31.511Z,9.10
2018-12-31T03:10:31.506Z,11.00
2018-12-31T03:11:31.501Z,7.90
2018-12-31T03:12:31.529Z,9.40
2018-12-31T03:13:31.490Z,10.80
2018-12-31T03:14:31.491Z,9.80
2018-12-31T03:15:31.486Z,9.90
2018-12-31T03:16:31.481Z,9.70
2018-12-31T03:17:31.505Z,10.40
2018-12-31T03:18:31.483Z,10.00
2018-12-31T03:19:31.473Z,8.90
2018-12-31T03:20:31.468Z,10.00
2018-12-31T03:21:31.467Z,7.20
2018-12-31T03:22:31.485Z,6.80
2018-12-31T03:23:31.454Z,7.90
2018-12-31T03:24:31.458Z,9.30
2018-12-31T03:25:31.449Z,8.80
2018-12-31T03:26:31.453Z,9.00
2018-12-31T03:27:31.474Z,9.10
2018-12-31T03:28:31.436Z,9.00
2018-12-31T03:29:31.434Z,9.40
2018-12-31T03:30:31.433Z,9.60
2018-12-31T03:31:31.426Z,8.10
2018-12-31T03:32:31.451Z,7.80
2018-12-31T03:33:31.417Z,9.40
2018-12-31T03:34:31.416Z,9.90
2018-12-31T03:35:31.409Z,10.10
2018-12-31T03:36:31.405Z,8.80
2018-12-31T03:37:31.430Z,9.20
2018-12-31T03:38:31.397Z,9.10
2018-12-31T03:39:31.421Z,9.20
2018-12-31T03:40:31.390Z,10.10
2018-12-31T03:41:31.388Z,10.70
2018-12-31T03:42:31.470Z,9.90
2018-12-31T03:43:31.407Z,9.00
2018-12-31T03:44:31.378Z,9.10
2018-12-31T03:45:31.372Z,9.00
2018-12-31T03:46:31.365Z,9.90
2018-12-31T03:47:31.361Z,11.40
2018-12-31T03:48:31.386Z,11.50
2018-12-31T03:49:31.352Z,10.30
2018-12-31T03:50:31.353Z,10.10
2018-12-31T03:51:31.349Z,9.60
2018-12-31T03:52:31.345Z,10.90
2018-12-31T03:53:31.367Z,8.60
2018-12-31T03:54:31.338Z,10.00
2018-12-31T03:55:31.333Z,9.40
2018-12-31T03:56:31.329Z,10.10
2018-12-31T03:57:31.322Z,9.50
2018-12-31T03:58:31.342Z,10.30
2018-12-31T03:59:31.319Z,10.10
2018-12-31T04:00:31.312Z,10.00
2018-12-31T04:01:31.316Z,11.20
2018-12-31T04:02:31.308Z,9.80
2018-12-31T04:03:31.331Z,10.50
2018-12-31T04:04:31.305Z,10.60
2018-12-31T04:05:31.291Z,10.30
2018-12-31T04:06:31.294Z,11.80
2018-12-31T04:07:31.284Z,9.80
2018-12-31T04:08:31.314Z,9.60
2018-12-31T04:09:31.280Z,9.10
2018-12-31T04:10:31.285Z,10.90
2018-12-31T04:11:31.268Z,9.00
2018-12-31T04:12:31.271Z,8.70
2018-12-31T04:13:31.295Z,9.90
2018-12-31T04:14:31.261Z,9.00
2018-12-31T04:15:31.284Z,9.50
2018-12-31T04:16:31.256Z,9.10
2018-12-31T04:17:31.249Z,9.20
2018-12-31T04:18:31.249Z,10.60
2018-12-31T04:19:31.270Z,9.50
2018-12-31T04:20:31.241Z,8.50
2018-12-31T04:21:31.232Z,10.10
2018-12-31T04:22:31.245Z,10.10
2018-12-31T04:23:31.229Z,11.00
2018-12-31T04:24:31.249Z,10.60
2018-12-31T04:25:31.217Z,9.90
2018-12-31T04:26:31.215Z,9.80
2018-12-31T04:27:31.216Z,10.70
2018-12-31T04:28:31.208Z,10.20
2018-12-31T04:29:31.236Z,9.80
2018-12-31T04:30:31.202Z,9.60
2018-12-31T04:31:31.196Z,10.00
2018-12-31T04:32:31.193Z,10.10
2018-12-31T04:33:31.187Z,11.90
2018-12-31T04:34:31.212Z,9.60
2018-12-31T04:35:31.181Z,9.60
2018-12-31T04:36:31.170Z,10.60
2018-12-31T04:37:31.176Z,10.00
2018-12-31T04:38:31.167Z,9.80
2018-12-31T04:39:31.193Z,9.20
2018-12-31T04:40:31.167Z,9.70
2018-12-31T04:41:31.160Z,10.20
2018-12-31T04:42:31.156Z,9.70
2018-12-31T04:43:31.152Z,10.20
2018-12-31T04:44:31.171Z,10.30
2018-12-31T04:45:31.175Z,10.50
2018-12-31T04:46:31.136Z,10.00
2018-12-31T04:47:31.141Z,8.70
2018-12-31T04:48:31.132Z,9.90
2018-12-31T04:49:31.131Z,10.00
2018-12-31T04:50:31.147Z,9.60
2018-12-31T04:51:31.119Z,10.80
2018-12-31T04:52:31.117Z,8.90
2018-12-31T04:53:31.111Z,9.90
2018-12-31T04:54:31.139Z,8.80
2018-12-31T04:55:31.104Z,10.10
2018-12-31T04:56:31.097Z,8.60
2018-12-31T04:57:31.101Z,10.40
2018-12-31T04:58:31.097Z,9.30
2018-12-31T04:59:31.124Z,8.40
2018-12-31T05:00:31.088Z,8.90
2018-12-31T05:01:31.083Z,9.20
2018-12-31T05:02:31.083Z,10.00
2018-12-31T05:03:31.074Z,8.10
2018-12-31T05:04:31.100Z,8.50
2018-12-31T05:05:31.069Z,9.60
2018-12-31T05:06:31.064Z,9.10
2018-12-31T05:07:31.062Z,8.80
2018-12-31T05:08:31.054Z,9.30
2018-12-31T05:09:31.075Z,11.20
2018-12-31T05:10:31.047Z,8.00
2018-12-31T05:11:31.043Z,9.40
2018-12-31T05:12:31.041Z,9.30
2018-12-31T05:13:31.037Z,8.70
2018-12-31T05:14:31.060Z,8.10
2018-12-31T05:15:31.036Z,8.20
2018-12-31T05:16:31.035Z,7.30
2018-12-31T05:17:31.022Z,8.90
2018-12-31T05:18:31.014Z,8.60
2018-12-31T05:19:31.043Z,9.10
2018-12-31T05:20:31.011Z,7.90
2018-12-31T05:21:31.013Z,8.70
2018-12-31T05:22:31.002Z,6.50
2018-12-31T05:23:31.000Z,9.10
2018-12-31T05:24:31.019Z,7.70
2018-12-31T05:25:30.998Z,8.00
2018-12-31T05:26:30.992Z,8.50
2018-12-31T05:27:30.983Z,9.10
2018-12-31T05:28:30.984Z,8.60
2018-12-31T05:29:31.007Z,8.30
2018-12-31T05:30:30.986Z,8.50
2018-12-31T05:31:30.973Z,8.90
2018-12-31T05:32:30.966Z,11.30
2018-12-31T05:33:30.962Z,9.10
2018-12-31T05:34:30.988Z,9.00
2018-12-31T05:35:30.957Z,8.40
2018-12-31T05:36:30.984Z,9.30
2018-12-31T05:37:30.947Z,9.40
2018-12-31T05:38:30.942Z,7.90
2018-12-31T05:39:30.936Z,9.20
2018-12-31T05:40:30.968Z,7.70
2018-12-31T05:41:30.932Z,9.00
2018-12-31T05:42:30.930Z,7.80
2018-12-31T05:43:30.922Z,8.30
2018-12-31T05:44:30.922Z,7.00
2018-12-31T05:45:30.946Z,8.70
2018-12-31T05:46:30.914Z,8.60
2018-12-31T05:47:30.914Z,8.10
2018-12-31T05:48:30.906Z,7.90
2018-12-31T05:49:30.903Z,8.10
2018-12-31T05:50:30.926Z,8.10
2018-12-31T05:51:30.890Z,9.10
2018-12-31T05:52:30.894Z,8.20
2018-12-31T05:53:30.887Z,9.80
2018-12-31T05:54:30.879Z,8.00
2018-12-31T05:55:30.906Z,9.10
2018-12-31T05:56:30.877Z,8.00
2018-12-31T05:57:30.874Z,8.40
2018-12-31T05:58:30.880Z,8.00
2018-12-31T05:59:30.865Z,7.00
2018-12-31T06:00:30.895Z,9.30
2018-12-31T06:01:30.857Z,8.40
2018-12-31T06:02:30.853Z,8.70
2018-12-31T06:03:30.851Z,7.10
2018-12-31T06:04:30.847Z,7.20
2018-12-31T06:05:30.871Z,9.20
2018-12-31T06:06:30.879Z,9.00
2018-12-31T06:07:30.835Z,8.30
2018-12-31T06:08:30.829Z,8.90
2018-12-31T06:09:30.832Z,9.80
2018-12-31T06:10:30.825Z,8.90
2018-12-31T06:11:30.850Z,8.20
2018-12-31T06:12:30.821Z,9.90
2018-12-31T06:13:30.815Z,9.10
2018-12-31T06:14:30.809Z,7.00
2018-12-31T06:15:30.805Z,7.40
2018-12-31T06:16:30.863Z,8.50
2018-12-31T06:17:30.795Z,8.70
2018-12-31T06:18:30.797Z,7.80
2018-12-31T06:19:30.790Z,8.10
2018-12-31T06:20:30.785Z,8.70
2018-12-31T06:21:30.816Z,7.80
2018-12-31T06:22:30.781Z,9.10
2018-12-31T06:23:30.777Z,8.70
2018-12-31T06:24:30.774Z,9.40
2018-12-31T06:25:30.768Z,9.00
2018-12-31T06:26:30.796Z,9.60
2018-12-31T06:27:30.761Z,10.30
2018-12-31T06:28:30.758Z,11.00
2018-12-31T06:29:30.749Z,10.30
2018-12-31T06:30:30.754Z,12.80
2018-12-31T06:31:30.780Z,11.40
2018-12-31T06:32:30.753Z,11.50
2018-12-31T06:33:30.777Z,12.10
2018-12-31T06:34:30.737Z,12.10
2018-12-31T06:35:30.730Z,12.30
2018-12-31T06:36:30.757Z,12.90
2018-12-31T06:37:30.725Z,13.10
2018-12-31T06:38:30.721Z,13.40
2018-12-31T06:39:30.717Z,13.80
2018-12-31T06:40:30.710Z,13.70
2018-12-31T06:41:30.739Z,13.50
2018-12-31T06:42:30.702Z,13.50
2018-12-31T06:43:30.701Z,14.20
2018-12-31T06:44:30.697Z,13.60
2018-12-31T06:45:30.696Z,15.20
2018-12-31T06:46:30.719Z,14.70
2018-12-31T06:47:30.684Z,15.00
2018-12-31T06:48:30.684Z,14.50
2018-12-31T06:49:30.682Z,15.30
2018-12-31T06:50:30.677Z,15.50
2018-12-31T06:51:30.702Z,15.50
2018-12-31T06:52:30.669Z,15.20
2018-12-31T06:53:30.667Z,17.70
2018-12-31T06:54:30.660Z,14.90
2018-12-31T06:55:30.654Z,15.30
2018-12-31T06:56:30.681Z,14.30
2018-12-31T06:57:30.650Z,14.80
2018-12-31T06:58:30.645Z,16.40
2018-12-31T06:59:30.640Z,15.10
2018-12-31T07:00:30.634Z,15.20
2018-12-31T07:01:30.661Z,13.50
2018-12-31T07:02:30.628Z,14.40
2018-12-31T07:03:30.624Z,16.00
2018-12-31T07:04:30.620Z,19.10
2018-12-31T07:05:30.621Z,22.50
2018-12-31T07:06:30.636Z,20.50
2018-12-31T07:07:30.608Z,18.20
2018-12-31T07:08:30.607Z,15.30
2018-12-31T07:09:30.603Z,14.80
2018-12-31T07:10:30.599Z,14.20
2018-12-31T07:11:30.623Z,14.10
2018-12-31T07:12:30.592Z,13.00
2018-12-31T07:13:30.592Z,13.30
2018-12-31T07:14:30.584Z,12.80
2018-12-31T07:15:30.580Z,13.10
2018-12-31T07:16:30.603Z,14.50
2018-12-31T07:17:30.604Z,14.00
2018-12-31T07:18:30.573Z,12.00
2018-12-31T07:19:30.564Z,14.80
2018-12-31T07:20:30.564Z,13.10
2018-12-31T07:21:30.560Z,13.30
2018-12-31T07:22:30.584Z,14.90
2018-12-31T07:23:30.552Z,13.90
2018-12-31T07:24:30.549Z,14.30
2018-12-31T07:25:30.544Z,13.20
2018-12-31T07:26:30.571Z,13.10
2018-12-31T07:27:30.563Z,10.80
2018-12-31T07:28:30.535Z,11.80
2018-12-31T07:29:30.532Z,10.60
2018-12-31T07:30:30.527Z,11.00
2018-12-31T07:31:30.530Z,13.60
2018-12-31T07:32:30.551Z,14.00
2018-12-31T07:33:30.515Z,12.10
2018-12-31T07:34:30.515Z,13.40
2018-12-31T07:35:30.511Z,12.90
2018-12-31T07:36:30.506Z,12.90
2018-12-31T07:37:30.531Z,12.50
2018-12-31T07:38:30.500Z,13.50
2018-12-31T07:39:30.504Z,13.10
2018-12-31T07:40:30.491Z,13.20
2018-12-31T07:41:30.483Z,12.00
2018-12-31T07:42:30.567Z,12.20
2018-12-31T07:43:30.479Z,13.70
2018-12-31T07:44:30.475Z,13.70
2018-12-31T07:45:30.471Z,12.20
2018-12-31T07:46:30.472Z,12.90
2018-12-31T07:47:30.492Z,12.50
2018-12-31T07:48:30.463Z,14.00
2018-12-31T07:49:30.459Z,13.90
2018-12-31T07:50:30.461Z,12.50
2018-12-31T07:51:30.452Z,12.70
2018-12-31T07:52:30.474Z,12.40
2018-12-31T07:53:30.436Z,12.20
2018-12-31T07:54:30.443Z,12.80
2018-12-31T07:55:30.435Z,11.90
2018-12-31T07:56:30.426Z,13.30
2018-12-31T07:57:30.459Z,13.30
2018-12-31T07:58:30.426Z,12.50
2018-12-31T07:59:30.420Z,12.70
2018-12-31T08:00:30.423Z,12.70
2018-12-31T08:01:30.415Z,14.90
2018-12-31T08:02:30.453Z,15.00
2018-12-31T08:03:30.406Z,14.10
2018-12-31T08:04:30.407Z,12.80
2018-12-31T08:05:30.478Z,15.40
2018-12-31T08:06:30.426Z,15.00
2018-12-31T08:07:30.395Z,13.20
2018-12-31T08:08:30.423Z,13.50
2018-12-31T08:09:30.388Z,16.20
2018-12-31T08:10:30.385Z,15.10
2018-12-31T08:11:30.379Z,18.60
2018-12-31T08:12:30.399Z,19.60
2018-12-31T08:13:30.376Z,24.50
2018-12-31T08:14:30.371Z,26.80
2018-12-31T08:15:30.366Z,24.00
2018-12-31T08:16:30.363Z,27.00
2018-12-31T08:17:30.386Z,25.30
2018-12-31T08:18:30.358Z,21.50
2018-12-31T08:19:30.350Z,19.90
2018-12-31T08:20:30.350Z,17.40
2018-12-31T08:21:30.353Z,18.10
2018-12-31T08:22:30.423Z,15.20
2018-12-31T08:23:30.340Z,14.60
2018-12-31T08:24:30.341Z,13.60
2018-12-31T08:25:30.334Z,14.30
2018-12-31T08:26:30.332Z,15.30
2018-12-31T08:27:30.355Z,12.30
2018-12-31T08:28:30.326Z,12.70
2018-12-31T08:29:30.319Z,13.70
2018-12-31T08:30:30.313Z,13.40
2018-12-31T08:31:30.315Z,14.20
2018-12-31T08:32:30.339Z,13.80
2018-12-31T08:33:30.304Z,12.60
2018-12-31T08:34:30.302Z,15.10
2018-12-31T08:35:30.299Z,15.50
2018-12-31T08:36:30.298Z,16.70
2018-12-31T08:37:30.322Z,18.30
2018-12-31T08:38:30.318Z,16.50
2018-12-31T08:39:30.289Z,17.60
2018-12-31T08:40:30.282Z,17.80
2018-12-31T08:41:30.282Z,15.50
2018-12-31T08:42:30.283Z,13.40
2018-12-31T08:43:30.302Z,15.40
2018-12-31T08:44:30.344Z,14.40
2018-12-31T08:45:30.266Z,14.80
2018-12-31T08:46:30.265Z,13.00
2018-12-31T08:47:30.288Z,12.50
2018-12-31T08:48:30.258Z,13.30
2018-12-31T08:49:30.259Z,13.40
2018-12-31T08:50:30.249Z,12.30
2018-12-31T08:51:30.246Z,11.30
2018-12-31T08:52:30.274Z,11.20
2018-12-31T08:53:30.242Z,12.20
2018-12-31T08:54:30.234Z,13.50
2018-12-31T08:55:30.236Z,12.20
2018-12-31T08:56:30.232Z,11.80
2018-12-31T08:57:30.254Z,12.50
2018-12-31T08:58:30.227Z,12.90
2018-12-31T08:59:30.222Z,13.20
2018-12-31T09:00:30.220Z,12.20
2018-12-31T09:01:30.214Z,11.90
2018-12-31T09:02:30.234Z,13.30
2018-12-31T09:03:30.207Z,12.70
2018-12-31T09:04:30.205Z,14.10
2018-12-31T09:05:30.202Z,13.30
2018-12-31T09:06:30.204Z,11.80
2018-12-31T09:07:30.214Z,13.20
2018-12-31T09:08:30.191Z,13.70
2018-12-31T09:09:30.190Z,14.00
2018-12-31T09:10:30.182Z,13.10
2018-12-31T09:11:30.185Z,14.50
2018-12-31T09:12:30.206Z,14.30
2018-12-31T09:13:30.174Z,14.70
2018-12-31T09:14:30.174Z,14.10
2018-12-31T09:15:30.172Z,13.40
2018-12-31T09:16:30.165Z,13.40
2018-12-31T09:17:30.190Z,13.80
2018-12-31T09:18:30.157Z,14.10
2018-12-31T09:19:30.155Z,14.50
2018-12-31T09:20:30.155Z,14.10
2018-12-31T09:21:30.149Z,14.10
2018-12-31T09:22:30.173Z,15.80
2018-12-31T09:23:30.137Z,14.60
2018-12-31T09:24:30.140Z,14.10
2018-12-31T09:25:30.137Z,15.20
2018-12-31T09:26:30.130Z,14.70
2018-12-31T09:27:30.158Z,13.90
2018-12-31T09:28:30.125Z,15.00
2018-12-31T09:29:30.150Z,13.60
2018-12-31T09:30:30.120Z,15.80
2018-12-31T09:31:30.116Z,13.30
2018-12-31T09:32:30.115Z,14.30
2018-12-31T09:33:30.139Z,15.90
2018-12-31T09:34:30.109Z,16.50
2018-12-31T09:35:30.109Z,14.50
2018-12-31T09:36:30.100Z,17.50
2018-12-31T09:37:30.097Z,17.30
2018-12-31T09:38:30.127Z,16.00
2018-12-31T09:39:30.090Z,17.70
2018-12-31T09:40:30.092Z,17.90
2018-12-31T09:41:30.084Z,22.60
2018-12-31T09:42:30.111Z,30.70
2018-12-31T09:43:30.081Z,44.10
2018-12-31T09:44:30.077Z,26.30
2018-12-31T09:45:30.073Z,30.60
2018-12-31T09:46:30.068Z,18.60
2018-12-31T09:47:30.094Z,21.50
2018-12-31T09:48:30.062Z,15.60
2018-12-31T09:49:30.060Z,16.30
2018-12-31T09:50:30.053Z,19.70
2018-12-31T09:51:30.057Z,17.70
2018-12-31T09:52:30.081Z,21.10
2018-12-31T09:53:30.048Z,24.80
2018-12-31T09:54:30.073Z,20.50
2018-12-31T09:55:30.041Z,22.90
2018-12-31T09:56:30.037Z,18.80
2018-12-31T09:57:30.032Z,16.60
2018-12-31T09:58:30.061Z,17.00
2018-12-31T09:59:30.031Z,23.50
2018-12-31T10:00:30.909Z,20.20
2018-12-31T10:01:30.087Z,16.20
2018-12-31T10:02:30.025Z,20.60
2018-12-31T10:03:30.046Z,18.30
2018-12-31T10:04:30.012Z,20.40
2018-12-31T10:05:30.008Z,19.10
2018-12-31T10:06:30.001Z,17.30
2018-12-31T10:07:30.004Z,16.60
2018-12-31T10:08:30.024Z,18.20
2018-12-31T10:09:30.003Z,16.80
2018-12-31T10:10:29.992Z,18.90
2018-12-31T10:11:29.988Z,17.40
2018-12-31T10:12:29.985Z,23.00
2018-12-31T10:13:30.012Z,41.50
2018-12-31T10:14:29.979Z,48.60
2018-12-31T10:15:29.994Z,23.30
2018-12-31T10:16:30.566Z,46.00
2018-12-31T10:17:29.969Z,52.80
2018-12-31T10:18:30.001Z,52.40
2018-12-31T10:19:29.958Z,24.70
2018-12-31T10:20:30.132Z,24.40
2018-12-31T10:21:29.960Z,33.10
2018-12-31T10:22:29.948Z,19.10
2018-12-31T10:23:29.951Z,19.60
2018-12-31T10:24:29.985Z,21.90
2018-12-31T10:25:29.943Z,23.10
2018-12-31T10:26:29.948Z,29.70
2018-12-31T10:27:29.936Z,19.70
2018-12-31T10:28:29.962Z,24.60
2018-12-31T10:29:35.949Z,16.60
2018-12-31T10:30:29.930Z,17.60
2018-12-31T10:31:30.907Z,21.30
2018-12-31T10:32:29.922Z,20.70
2018-12-31T10:33:29.944Z,22.90
2018-12-31T10:34:29.913Z,25.20
2018-12-31T10:35:29.935Z,26.00
2018-12-31T10:36:29.920Z,26.40
2018-12-31T10:37:29.903Z,24.30
2018-12-31T10:38:29.904Z,32.00
2018-12-31T10:39:29.927Z,32.20
2018-12-31T10:40:29.891Z,25.20
2018-12-31T10:41:29.895Z,31.20
2018-12-31T10:42:29.889Z,54.30
2018-12-31T10:43:29.879Z,44.10
2018-12-31T10:44:29.911Z,53.40
2018-12-31T10:45:29.879Z,26.90
2018-12-31T10:46:29.879Z,28.90
2018-12-31T10:47:29.875Z,65.00
2018-12-31T10:48:29.869Z,47.90
2018-12-31T10:49:29.892Z,68.80
2018-12-31T10:50:29.888Z,63.90
2018-12-31T10:51:29.862Z,79.60
2018-12-31T10:52:29.857Z,49.80
2018-12-31T10:53:29.852Z,32.30
2018-12-31T10:54:29.852Z,25.80
2018-12-31T10:55:29.875Z,17.00
2018-12-31T10:56:29.838Z,22.00
2018-12-31T10:57:29.839Z,21.30
2018-12-31T10:58:29.843Z,21.70
2018-12-31T10:59:29.831Z,20.40
2018-12-31T11:00:29.858Z,20.60
2018-12-31T11:01:29.858Z,15.90
2018-12-31T11:02:29.827Z,14.30
2018-12-31T11:03:29.824Z,18.20
2018-12-31T11:04:29.855Z,19.90
2018-12-31T11:05:29.823Z,17.50
2018-12-31T11:06:29.811Z,17.80
2018-12-31T11:07:29.814Z,17.20
2018-12-31T11:08:29.807Z,18.10
2018-12-31T11:09:29.832Z,17.40
2018-12-31T11:10:29.797Z,18.20
2018-12-31T11:11:29.798Z,16.70
2018-12-31T11:12:29.795Z,18.40
2018-12-31T11:13:29.788Z,17.10
2018-12-31T11:14:29.834Z,17.90
2018-12-31T11:15:29.786Z,17.90
2018-12-31T11:16:29.810Z,18.80
2018-12-31T11:17:29.778Z,19.10
2018-12-31T11:18:29.779Z,16.70
2018-12-31T11:19:29.775Z,17.40
2018-12-31T11:20:29.798Z,15.80
2018-12-31T11:21:29.767Z,14.80
2018-12-31T11:22:29.766Z,14.60
2018-12-31T11:23:29.811Z,16.10
2018-12-31T11:24:29.757Z,14.70
2018-12-31T11:25:29.785Z,14.70
2018-12-31T11:26:29.754Z,13.60
2018-12-31T11:27:29.750Z,13.20
2018-12-31T11:28:29.745Z,13.30
2018-12-31T11:29:29.749Z,13.10
2018-12-31T11:30:31.192Z,15.40
2018-12-31T11:31:30.517Z,15.90
2018-12-31T11:32:29.738Z,13.40
2018-12-31T11:33:29.735Z,12.80
2018-12-31T11:34:29.730Z,14.50
2018-12-31T11:35:29.758Z,13.80
2018-12-31T11:36:29.728Z,12.90
2018-12-31T11:37:34.628Z,12.60
2018-12-31T11:38:29.726Z,11.80
2018-12-31T11:39:29.719Z,12.50
2018-12-31T11:40:29.743Z,11.20
2018-12-31T11:41:29.713Z,11.30
2018-12-31T11:42:29.717Z,12.60
2018-12-31T11:43:29.710Z,10.50
2018-12-31T11:44:29.701Z,11.30
2018-12-31T11:45:29.734Z,11.60
2018-12-31T11:46:29.698Z,10.10
2018-12-31T11:47:29.700Z,9.80
2018-12-31T11:48:29.694Z,10.50
2018-12-31T11:49:29.689Z,12.20
2018-12-31T11:50:29.774Z,12.30
2018-12-31T11:51:29.687Z,10.80
2018-12-31T11:52:29.681Z,10.20
2018-12-31T11:53:29.682Z,8.80
2018-12-31T11:54:29.683Z,8.40
2018-12-31T11:55:29.699Z,6.90
2018-12-31T11:56:29.678Z,8.00
2018-12-31T11:57:29.670Z,8.10
2018-12-31T11:58:29.754Z,8.50
2018-12-31T11:59:29.666Z,9.20
2018-12-31T12:00:29.694Z,9.00
2018-12-31T12:01:29.690Z,8.30
2018-12-31T12:02:29.678Z,9.80
2018-12-31T12:03:29.657Z,28.80
2018-12-31T12:04:29.653Z,72.60
2018-12-31T12:05:29.651Z,25.60
2018-12-31T12:06:29.680Z,41.40
2018-12-31T12:07:29.650Z,43.30
2018-12-31T12:08:29.650Z,38.50
2018-12-31T12:09:30.414Z,43.30
2018-12-31T12:10:29.638Z,36.70
2018-12-31T12:11:29.671Z,33.90
2018-12-31T12:12:29.631Z,28.70
2018-12-31T12:13:29.635Z,31.70
2018-12-31T12:14:29.631Z,8.40
2018-12-31T12:15:29.619Z,11.30
2018-12-31T12:16:29.654Z,12.90
2018-12-31T12:17:29.619Z,7.60
2018-12-31T12:18:29.622Z,7.60
2018-12-31T12:19:29.627Z,8.30
2018-12-31T12:20:29.618Z,8.70
2018-12-31T12:21:29.649Z,10.20
2018-12-31T12:22:29.615Z,9.80
2018-12-31T12:23:29.610Z,8.20
2018-12-31T12:24:29.606Z,8.40
2018-12-31T12:25:30.413Z,9.40
2018-12-31T12:26:29.630Z,11.60
2018-12-31T12:27:29.596Z,8.10
2018-12-31T12:28:29.594Z,7.50
2018-12-31T12:29:29.595Z,8.60
2018-12-31T12:30:29.594Z,9.70
2018-12-31T12:31:29.619Z,10.50
2018-12-31T12:32:29.586Z,9.80
2018-12-31T12:33:29.582Z,11.20
2018-12-31T12:34:29.587Z,14.50
2018-12-31T12:35:29.577Z,11.10
2018-12-31T12:36:29.602Z,9.20
2018-12-31T12:37:29.574Z,8.10
2018-12-31T12:38:29.570Z,10.60
2018-12-31T12:39:29.570Z,10.40
2018-12-31T12:40:29.573Z,9.70
2018-12-31T12:41:29.589Z,9.10
2018-12-31T12:42:29.562Z,7.90
2018-12-31T12:43:29.567Z,10.10
2018-12-31T12:44:29.551Z,11.30
2018-12-31T12:45:29.553Z,11.50
2018-12-31T12:46:29.578Z,11.40
2018-12-31T12:47:29.544Z,11.70
2018-12-31T12:48:29.542Z,13.40
2018-12-31T12:49:29.542Z,10.50
2018-12-31T12:50:29.542Z,12.90
2018-12-31T12:51:29.564Z,11.90
2018-12-31T12:52:29.538Z,13.40
2018-12-31T12:53:29.531Z,13.00
2018-12-31T12:54:29.532Z,10.60
2018-12-31T12:55:29.526Z,8.40
2018-12-31T12:56:29.549Z,10.10
2018-12-31T12:57:29.522Z,10.60
2018-12-31T12:58:29.518Z,9.80
2018-12-31T12:59:29.515Z,11.00
2018-12-31T13:00:29.511Z,9.20
2018-12-31T13:01:29.534Z,9.50
2018-12-31T13:02:29.508Z,9.10
2018-12-31T13:03:29.504Z,7.40